sensor_id;sensor_type;location;lat;lon;timestamp;pressure;altitude;pressure_sealevel;temperature;humidity
63281;BME280;49406;51.044;3.766;2022-08-19T00:02:21;101531.38;;;18.00;95.67
63281;BME280;49406;51.044;3.766;2022-08-19T00:04:56;101526.29;;;17.97;95.88
63281;BME280;49406;51.044;3.766;2022-08-19T00:07:30;101529.17;;;17.92;95.82
63281;BME280;49406;51.044;3.766;2022-08-19T00:10:07;101528.71;;;17.86;96.03
63281;BME280;49406;51.044;3.766;2022-08-19T00:12:42;101523.29;;;17.79;96.34
63281;BME280;49406;51.044;3.766;2022-08-19T00:15:19;101522.30;;;17.73;96.32
63281;BME280;49406;51.044;3.766;2022-08-19T00:17:55;101523.94;;;17.68;96.79
63281;BME280;49406;51.044;3.766;2022-08-19T00:20:29;101528.02;;;17.64;97.44
63281;BME280;49406;51.044;3.766;2022-08-19T00:23:04;101531.06;;;17.60;97.75
63281;BME280;49406;51.044;3.766;2022-08-19T00:25:38;101534.10;;;17.56;97.73
63281;BME280;49406;51.044;3.766;2022-08-19T00:28:13;101533.45;;;17.52;98.04
63281;BME280;49406;51.044;3.766;2022-08-19T00:30:48;101529.27;;;17.45;97.96
63281;BME280;49406;51.044;3.766;2022-08-19T00:33:25;101531.96;;;17.40;98.48
63281;BME280;49406;51.044;3.766;2022-08-19T00:36:00;101532.01;;;17.36;98.65
63281;BME280;49406;51.044;3.766;2022-08-19T00:38:36;101537.34;;;17.33;98.80
63281;BME280;49406;51.044;3.766;2022-08-19T00:41:14;101538.59;;;17.28;98.62
63281;BME280;49406;51.044;3.766;2022-08-19T00:44:01;101543.95;;;17.23;98.66
63281;BME280;49406;51.044;3.766;2022-08-19T00:46:37;101545.42;;;17.17;98.66
63281;BME280;49406;51.044;3.766;2022-08-19T00:49:16;101549.86;;;17.11;99.58
63281;BME280;49406;51.044;3.766;2022-08-19T00:51:55;101551.81;;;17.10;100.00
63281;BME280;49406;51.044;3.766;2022-08-19T00:54:32;101551.30;;;17.08;99.98
63281;BME280;49406;51.044;3.766;2022-08-19T00:57:10;101550.77;;;17.07;100.00
63281;BME280;49406;51.044;3.766;2022-08-19T00:59:49;101546.36;;;17.08;99.87
63281;BME280;49406;51.044;3.766;2022-08-19T01:02:28;101550.27;;;17.05;99.56
63281;BME280;49406;51.044;3.766;2022-08-19T01:05:07;101552.06;;;17.02;99.41
63281;BME280;49406;51.044;3.766;2022-08-19T01:07:43;101548.20;;;17.00;99.72
63281;BME280;49406;51.044;3.766;2022-08-19T01:10:20;101548.38;;;16.99;99.54
63281;BME280;49406;51.044;3.766;2022-08-19T01:12:57;101547.16;;;16.97;99.53
63281;BME280;49406;51.044;3.766;2022-08-19T01:15:35;101545.91;;;16.95;99.48
63281;BME280;49406;51.044;3.766;2022-08-19T01:18:15;101546.81;;;16.93;99.59
63281;BME280;49406;51.044;3.766;2022-08-19T01:20:52;101544.52;;;16.92;100.00
63281;BME280;49406;51.044;3.766;2022-08-19T01:23:28;101543.82;;;16.92;99.97
63281;BME280;49406;51.044;3.766;2022-08-19T01:26:18;101543.30;;;16.92;99.79
63281;BME280;49406;51.044;3.766;2022-08-19T01:28:55;101542.96;;;16.88;100.00
63281;BME280;49406;51.044;3.766;2022-08-19T01:31:30;101543.69;;;16.87;100.00
63281;BME280;49406;51.044;3.766;2022-08-19T01:34:05;101547.23;;;16.85;100.00
63281;BME280;49406;51.044;3.766;2022-08-19T01:36:42;101552.55;;;16.83;100.00
63281;BME280;49406;51.044;3.766;2022-08-19T01:39:20;101557.86;;;16.82;100.00
63281;BME280;49406;51.044;3.766;2022-08-19T01:41:55;101558.39;;;16.79;100.00
63281;BME280;49406;51.044;3.766;2022-08-19T01:44:30;101558.56;;;16.78;100.00
63281;BME280;49406;51.044;3.766;2022-08-19T01:47:06;101559.63;;;16.76;100.00
63281;BME280;49406;51.044;3.766;2022-08-19T01:49:41;101556.30;;;16.74;100.00
63281;BME280;49406;51.044;3.766;2022-08-19T01:52:15;101553.48;;;16.71;100.00
63281;BME280;49406;51.044;3.766;2022-08-19T01:54:50;101558.11;;;16.68;100.00
63281;BME280;49406;51.044;3.766;2022-08-19T01:57:24;101559.15;;;16.66;100.00
63281;BME280;49406;51.044;3.766;2022-08-19T01:59:59;101558.28;;;16.64;100.00
63281;BME280;49406;51.044;3.766;2022-08-19T02:02:37;101560.56;;;16.63;100.00
63281;BME280;49406;51.044;3.766;2022-08-19T02:05:13;101562.34;;;16.60;100.00
63281;BME280;49406;51.044;3.766;2022-08-19T02:07:51;101563.59;;;16.58;100.00
63281;BME280;49406;51.044;3.766;2022-08-19T02:10:26;101562.36;;;16.58;100.00
63281;BME280;49406;51.044;3.766;2022-08-19T02:13:00;101562.02;;;16.56;100.00
63281;BME280;49406;51.044;3.766;2022-08-19T02:15:35;101558.69;;;16.52;100.00
63281;BME280;49406;51.044;3.766;2022-08-19T02:18:10;101556.77;;;16.48;100.00
63281;BME280;49406;51.044;3.766;2022-08-19T02:20:45;101557.66;;;16.44;100.00
63281;BME280;49406;51.044;3.766;2022-08-19T02:23:20;101555.55;;;16.41;100.00
63281;BME280;49406;51.044;3.766;2022-08-19T02:25:55;101556.27;;;16.39;100.00
63281;BME280;49406;51.044;3.766;2022-08-19T02:28:29;101552.41;;;16.35;100.00
63281;BME280;49406;51.044;3.766;2022-08-19T02:31:10;101548.91;;;16.32;100.00
63281;BME280;49406;51.044;3.766;2022-08-19T02:33:46;101542.91;;;16.29;100.00
63281;BME280;49406;51.044;3.766;2022-08-19T02:36:21;101545.54;;;16.27;100.00
63281;BME280;49406;51.044;3.766;2022-08-19T02:38:56;101548.39;;;16.24;100.00
63281;BME280;49406;51.044;3.766;2022-08-19T02:41:32;101549.82;;;16.21;100.00
63281;BME280;49406;51.044;3.766;2022-08-19T02:44:07;101549.66;;;16.19;100.00
63281;BME280;49406;51.044;3.766;2022-08-19T02:46:41;101545.80;;;16.15;100.00
63281;BME280;49406;51.044;3.766;2022-08-19T02:49:17;101545.27;;;16.12;100.00
63281;BME280;49406;51.044;3.766;2022-08-19T02:51:52;101550.20;;;16.10;100.00
63281;BME280;49406;51.044;3.766;2022-08-19T02:54:27;101553.73;;;16.08;100.00
63281;BME280;49406;51.044;3.766;2022-08-19T02:57:02;101553.04;;;16.07;100.00
63281;BME280;49406;51.044;3.766;2022-08-19T02:59:37;101556.73;;;16.07;100.00
63281;BME280;49406;51.044;3.766;2022-08-19T03:02:12;101550.04;;;16.07;100.00
63281;BME280;49406;51.044;3.766;2022-08-19T03:04:47;101550.02;;;16.09;100.00
63281;BME280;49406;51.044;3.766;2022-08-19T03:07:22;101547.91;;;16.10;100.00
63281;BME280;49406;51.044;3.766;2022-08-19T03:09:56;101544.03;;;16.12;100.00
63281;BME280;49406;51.044;3.766;2022-08-19T03:12:34;101539.98;;;16.14;100.00
63281;BME280;49406;51.044;3.766;2022-08-19T03:15:10;101537.33;;;16.16;100.00
63281;BME280;49406;51.044;3.766;2022-08-19T03:17:45;101539.42;;;16.19;100.00
63281;BME280;49406;51.044;3.766;2022-08-19T03:20:19;101534.66;;;16.19;100.00
63281;BME280;49406;51.044;3.766;2022-08-19T03:22:54;101536.08;;;16.19;100.00
63281;BME280;49406;51.044;3.766;2022-08-19T03:25:28;101536.25;;;16.19;100.00
63281;BME280;49406;51.044;3.766;2022-08-19T03:28:04;101532.20;;;16.16;100.00
63281;BME280;49406;51.044;3.766;2022-08-19T03:30:39;101535.73;;;16.16;100.00
63281;BME280;49406;51.044;3.766;2022-08-19T03:33:14;101536.61;;;16.16;100.00
63281;BME280;49406;51.044;3.766;2022-08-19T03:36:01;101535.02;;;16.18;100.00
63281;BME280;49406;51.044;3.766;2022-08-19T03:38:37;101532.54;;;16.20;100.00
63281;BME280;49406;51.044;3.766;2022-08-19T03:41:13;101531.64;;;16.22;100.00
63281;BME280;49406;51.044;3.766;2022-08-19T03:43:48;101531.81;;;16.23;100.00
63281;BME280;49406;51.044;3.766;2022-08-19T03:46:26;101531.62;;;16.25;100.00
63281;BME280;49406;51.044;3.766;2022-08-19T03:49:03;101530.21;;;16.25;100.00
63281;BME280;49406;51.044;3.766;2022-08-19T03:51:42;101526.68;;;16.26;100.00
63281;BME280;49406;51.044;3.766;2022-08-19T03:54:19;101528.09;;;16.25;100.00
63281;BME280;49406;51.044;3.766;2022-08-19T03:56:57;101528.45;;;16.24;100.00
63281;BME280;49406;51.044;3.766;2022-08-19T03:59:34;101530.58;;;16.21;100.00
63281;BME280;49406;51.044;3.766;2022-08-19T04:02:11;101532.54;;;16.20;100.00
63281;BME280;49406;51.044;3.766;2022-08-19T04:04:46;101532.38;;;16.18;100.00
63281;BME280;49406;51.044;3.766;2022-08-19T04:07:20;101530.27;;;16.16;100.00
63281;BME280;49406;51.044;3.766;2022-08-19T04:09:54;101531.52;;;16.13;100.00
63281;BME280;49406;51.044;3.766;2022-08-19T04:12:29;101531.50;;;16.10;100.00
63281;BME280;49406;51.044;3.766;2022-08-19T04:15:04;101533.45;;;16.09;100.00
63281;BME280;49406;51.044;3.766;2022-08-19T04:17:39;101530.98;;;16.07;100.00
63281;BME280;49406;51.044;3.766;2022-08-19T04:20:13;101529.41;;;16.05;100.00
63281;BME280;49406;51.044;3.766;2022-08-19T04:22:48;101527.85;;;16.01;100.00
63281;BME280;49406;51.044;3.766;2022-08-19T04:25:23;101530.50;;;15.99;100.00
63281;BME280;49406;51.044;3.766;2022-08-19T04:27:57;101532.27;;;15.98;100.00
63281;BME280;49406;51.044;3.766;2022-08-19T04:30:31;101534.04;;;15.99;100.00
63281;BME280;49406;51.044;3.766;2022-08-19T04:33:12;101534.39;;;15.98;100.00
63281;BME280;49406;51.044;3.766;2022-08-19T04:35:50;101536.67;;;15.96;100.00
63281;BME280;49406;51.044;3.766;2022-08-19T04:38:25;101539.31;;;15.96;100.00
63281;BME280;49406;51.044;3.766;2022-08-19T04:40:59;101534.74;;;15.97;100.00
63281;BME280;49406;51.044;3.766;2022-08-19T04:43:51;101536.16;;;15.98;100.00
63281;BME280;49406;51.044;3.766;2022-08-19T04:46:26;101537.02;;;15.99;100.00
63281;BME280;49406;51.044;3.766;2022-08-19T04:49:03;101537.73;;;15.99;100.00
63281;BME280;49406;51.044;3.766;2022-08-19T04:51:42;101541.27;;;15.99;100.00
63281;BME280;49406;51.044;3.766;2022-08-19T04:54:18;101540.73;;;15.99;100.00
63281;BME280;49406;51.044;3.766;2022-08-19T04:56:55;101541.43;;;16.01;100.00
63281;BME280;49406;51.044;3.766;2022-08-19T04:59:29;101540.89;;;16.01;100.00
63281;BME280;49406;51.044;3.766;2022-08-19T05:02:06;101540.17;;;16.05;100.00
63281;BME280;49406;51.044;3.766;2022-08-19T05:04:41;101536.44;;;16.10;100.00
63281;BME280;49406;51.044;3.766;2022-08-19T05:07:15;101540.33;;;16.15;100.00
63281;BME280;49406;51.044;3.766;2022-08-19T05:09:50;101543.29;;;16.22;100.00
63281;BME280;49406;51.044;3.766;2022-08-19T05:12:24;101542.20;;;16.29;100.00
63281;BME280;49406;51.044;3.766;2022-08-19T05:15:01;101541.83;;;16.36;100.00
63281;BME280;49406;51.044;3.766;2022-08-19T05:17:36;101544.61;;;16.42;100.00
63281;BME280;49406;51.044;3.766;2022-08-19T05:20:11;101545.48;;;16.47;100.00
63281;BME280;49406;51.044;3.766;2022-08-19T05:23:03;101549.14;;;16.54;100.00
63281;BME280;49406;51.044;3.766;2022-08-19T05:25:40;101555.45;;;16.62;100.00
63281;BME280;49406;51.044;3.766;2022-08-19T05:28:15;101554.36;;;16.73;100.00
63281;BME280;49406;51.044;3.766;2022-08-19T05:30:49;101550.24;;;16.84;100.00
63281;BME280;49406;51.044;3.766;2022-08-19T05:33:24;101552.11;;;16.94;100.00
63281;BME280;49406;51.044;3.766;2022-08-19T05:35:58;101549.22;;;17.05;100.00
63281;BME280;49406;51.044;3.766;2022-08-19T05:38:33;101550.57;;;17.13;100.00
63281;BME280;49406;51.044;3.766;2022-08-19T05:41:10;101554.22;;;17.21;100.00
63281;BME280;49406;51.044;3.766;2022-08-19T05:43:44;101558.21;;;17.29;100.00
63281;BME280;49406;51.044;3.766;2022-08-19T05:46:20;101565.04;;;17.38;100.00
63281;BME280;49406;51.044;3.766;2022-08-19T05:48:55;101558.78;;;17.45;100.00
63281;BME280;49406;51.044;3.766;2022-08-19T05:51:30;101560.13;;;17.53;100.00
63281;BME280;49406;51.044;3.766;2022-08-19T05:54:06;101559.38;;;17.58;100.00
63281;BME280;49406;51.044;3.766;2022-08-19T05:56:42;101562.14;;;17.65;100.00
63281;BME280;49406;51.044;3.766;2022-08-19T05:59:17;101564.20;;;17.74;100.00
63281;BME280;49406;51.044;3.766;2022-08-19T06:01:53;101567.30;;;17.85;100.00
63281;BME280;49406;51.044;3.766;2022-08-19T06:04:28;101567.36;;;17.93;100.00
63281;BME280;49406;51.044;3.766;2022-08-19T06:07:03;101563.02;;;18.02;100.00
63281;BME280;49406;51.044;3.766;2022-08-19T06:09:38;101556.38;;;18.10;100.00
63281;BME280;49406;51.044;3.766;2022-08-19T06:12:12;101559.64;;;18.20;100.00
63281;BME280;49406;51.044;3.766;2022-08-19T06:14:46;101565.84;;;18.34;100.00
63281;BME280;49406;51.044;3.766;2022-08-19T06:17:23;101565.55;;;18.42;100.00
63281;BME280;49406;51.044;3.766;2022-08-19T06:19:59;101565.14;;;18.47;100.00
63281;BME280;49406;51.044;3.766;2022-08-19T06:22:38;101569.55;;;18.48;100.00
63281;BME280;49406;51.044;3.766;2022-08-19T06:25:14;101569.48;;;18.54;100.00
63281;BME280;49406;51.044;3.766;2022-08-19T06:27:50;101564.08;;;18.62;100.00
63281;BME280;49406;51.044;3.766;2022-08-19T06:30:24;101559.87;;;18.72;100.00
63281;BME280;49406;51.044;3.766;2022-08-19T06:32:59;101555.59;;;18.87;100.00
63281;BME280;49406;51.044;3.766;2022-08-19T06:35:37;101549.89;;;19.01;100.00
63281;BME280;49406;51.044;3.766;2022-08-19T06:38:12;101552.52;;;19.14;100.00
63281;BME280;49406;51.044;3.766;2022-08-19T06:40:46;101549.22;;;19.32;100.00
63281;BME280;49406;51.044;3.766;2022-08-19T06:43:21;101549.10;;;19.48;100.00
63281;BME280;49406;51.044;3.766;2022-08-19T06:45:55;101551.46;;;19.57;100.00
63281;BME280;49406;51.044;3.766;2022-08-19T06:48:30;101552.36;;;19.66;99.79
63281;BME280;49406;51.044;3.766;2022-08-19T06:51:05;101545.45;;;19.75;99.70
63281;BME280;49406;51.044;3.766;2022-08-19T06:53:40;101550.63;;;19.84;99.44
63281;BME280;49406;51.044;3.766;2022-08-19T06:56:18;101553.19;;;19.89;98.79
63281;BME280;49406;51.044;3.766;2022-08-19T06:58:53;101557.95;;;19.90;98.25
63281;BME280;49406;51.044;3.766;2022-08-19T07:01:28;101561.70;;;19.89;98.88
63281;BME280;49406;51.044;3.766;2022-08-19T07:04:03;101561.48;;;19.90;98.51
63281;BME280;49406;51.044;3.766;2022-08-19T07:06:38;101559.48;;;19.93;98.27
63281;BME280;49406;51.044;3.766;2022-08-19T07:09:15;101560.79;;;19.99;98.70
63281;BME280;49406;51.044;3.766;2022-08-19T07:11:52;101561.22;;;20.05;98.10
63281;BME280;49406;51.044;3.766;2022-08-19T07:14:28;101563.08;;;20.09;98.19
63281;BME280;49406;51.044;3.766;2022-08-19T07:17:02;101565.91;;;20.09;98.34
63281;BME280;49406;51.044;3.766;2022-08-19T07:19:38;101567.27;;;20.12;98.53
63281;BME280;49406;51.044;3.766;2022-08-19T07:22:13;101569.73;;;20.13;97.80
63281;BME280;49406;51.044;3.766;2022-08-19T07:24:48;101569.44;;;20.10;98.04
63281;BME280;49406;51.044;3.766;2022-08-19T07:27:23;101569.79;;;20.10;97.87
63281;BME280;49406;51.044;3.766;2022-08-19T07:29:57;101573.31;;;20.12;97.56
63281;BME280;49406;51.044;3.766;2022-08-19T07:32:32;101574.33;;;20.14;97.72
63281;BME280;49406;51.044;3.766;2022-08-19T07:35:08;101578.35;;;20.18;98.09
63281;BME280;49406;51.044;3.766;2022-08-19T07:37:43;101574.69;;;20.23;97.68
63281;BME280;49406;51.044;3.766;2022-08-19T07:40:18;101570.39;;;20.26;97.68
63281;BME280;49406;51.044;3.766;2022-08-19T07:42:52;101570.54;;;20.27;97.57
63281;BME280;49406;51.044;3.766;2022-08-19T07:45:27;101571.56;;;20.29;97.63
63281;BME280;49406;51.044;3.766;2022-08-19T07:48:02;101575.52;;;20.36;97.44
63281;BME280;49406;51.044;3.766;2022-08-19T07:50:36;101576.27;;;20.43;96.73
63281;BME280;49406;51.044;3.766;2022-08-19T07:53:11;101582.53;;;20.49;96.72
63281;BME280;49406;51.044;3.766;2022-08-19T07:55:46;101581.13;;;20.57;96.72
63281;BME280;49406;51.044;3.766;2022-08-19T07:58:21;101583.25;;;20.65;96.63
63281;BME280;49406;51.044;3.766;2022-08-19T08:00:56;101583.78;;;20.74;96.13
63281;BME280;49406;51.044;3.766;2022-08-19T08:03:31;101585.52;;;20.76;95.37
63281;BME280;49406;51.044;3.766;2022-08-19T08:06:23;101589.50;;;20.80;95.57
63281;BME280;49406;51.044;3.766;2022-08-19T08:09:17;101587.85;;;20.83;95.13
63281;BME280;49406;51.044;3.766;2022-08-19T08:11:54;101590.48;;;20.85;94.91
63281;BME280;49406;51.044;3.766;2022-08-19T08:14:35;101592.65;;;20.83;94.85
63281;BME280;49406;51.044;3.766;2022-08-19T08:17:12;101594.40;;;20.84;94.78
63281;BME280;49406;51.044;3.766;2022-08-19T08:19:48;101597.94;;;20.85;94.71
63281;BME280;49406;51.044;3.766;2022-08-19T08:22:23;101595.51;;;20.82;94.71
63281;BME280;49406;51.044;3.766;2022-08-19T08:25:21;101596.73;;;20.83;94.69
63281;BME280;49406;51.044;3.766;2022-08-19T08:27:56;101599.99;;;20.88;94.45
63281;BME280;49406;51.044;3.766;2022-08-19T08:30:33;101598.87;;;20.91;94.61
63281;BME280;49406;51.044;3.766;2022-08-19T08:33:09;101603.50;;;20.90;94.20
63281;BME280;49406;51.044;3.766;2022-08-19T08:35:43;101608.69;;;20.89;94.35
63281;BME280;49406;51.044;3.766;2022-08-19T08:38:18;101611.05;;;20.87;94.41
63281;BME280;49406;51.044;3.766;2022-08-19T08:40:56;101610.98;;;20.89;94.46
63281;BME280;49406;51.044;3.766;2022-08-19T08:43:40;101611.55;;;20.95;94.63
63281;BME280;49406;51.044;3.766;2022-08-19T08:46:20;101612.50;;;21.01;94.31
63281;BME280;49406;51.044;3.766;2022-08-19T08:48:59;101614.52;;;21.06;94.15
63281;BME280;49406;51.044;3.766;2022-08-19T08:51:41;101619.30;;;21.14;93.91
63281;BME280;49406;51.044;3.766;2022-08-19T08:54:20;101614.75;;;21.19;93.10
63281;BME280;49406;51.044;3.766;2022-08-19T08:56:59;101618.89;;;21.25;92.95
63281;BME280;49406;51.044;3.766;2022-08-19T08:59:36;101617.27;;;21.26;93.16
63281;BME280;49406;51.044;3.766;2022-08-19T09:02:14;101615.41;;;21.29;92.48
63281;BME280;49406;51.044;3.766;2022-08-19T09:04:49;101614.98;;;21.32;92.71
63281;BME280;49406;51.044;3.766;2022-08-19T09:07:30;101613.17;;;21.41;92.11
63281;BME280;49406;51.044;3.766;2022-08-19T09:10:26;101610.29;;;21.43;91.65
63281;BME280;49406;51.044;3.766;2022-08-19T09:13:11;101610.70;;;21.47;91.48
63281;BME280;49406;51.044;3.766;2022-08-19T09:15:51;101610.95;;;21.52;91.12
63281;BME280;49406;51.044;3.766;2022-08-19T09:18:27;101610.52;;;21.55;90.66
63281;BME280;49406;51.044;3.766;2022-08-19T09:21:12;101609.24;;;21.56;89.91
63281;BME280;49406;51.044;3.766;2022-08-19T09:23:47;101611.23;;;21.55;89.90
63281;BME280;49406;51.044;3.766;2022-08-19T09:26:23;101612.10;;;21.56;89.80
63281;BME280;49406;51.044;3.766;2022-08-19T09:28:57;101609.91;;;21.58;89.46
63281;BME280;49406;51.044;3.766;2022-08-19T09:31:34;101613.21;;;21.67;89.19
63281;BME280;49406;51.044;3.766;2022-08-19T09:34:08;101609.73;;;21.92;89.66
63281;BME280;49406;51.044;3.766;2022-08-19T09:36:42;101611.46;;;22.27;89.32
63281;BME280;49406;51.044;3.766;2022-08-19T09:39:17;101614.44;;;22.66;87.16
63281;BME280;49406;51.044;3.766;2022-08-19T09:41:51;101613.26;;;22.88;84.54
63281;BME280;49406;51.044;3.766;2022-08-19T09:44:27;101615.65;;;23.03;84.57
63281;BME280;49406;51.044;3.766;2022-08-19T09:47:01;101614.09;;;23.24;84.50
63281;BME280;49406;51.044;3.766;2022-08-19T09:49:36;101616.27;;;23.45;81.56
63281;BME280;49406;51.044;3.766;2022-08-19T09:52:12;101620.71;;;23.56;80.99
63281;BME280;49406;51.044;3.766;2022-08-19T09:54:48;101622.98;;;23.69;80.58
63281;BME280;49406;51.044;3.766;2022-08-19T09:57:25;101621.58;;;23.79;78.97
63281;BME280;49406;51.044;3.766;2022-08-19T10:00:00;101625.63;;;23.91;78.46
63281;BME280;49406;51.044;3.766;2022-08-19T10:02:35;101629.65;;;23.98;75.47
63281;BME280;49406;51.044;3.766;2022-08-19T10:05:10;101629.04;;;24.00;76.06
63281;BME280;49406;51.044;3.766;2022-08-19T10:08:02;101630.48;;;23.95;74.85
63281;BME280;49406;51.044;3.766;2022-08-19T10:10:37;101631.25;;;23.78;74.88
63281;BME280;49406;51.044;3.766;2022-08-19T10:13:12;101629.92;;;23.69;76.17
63281;BME280;49406;51.044;3.766;2022-08-19T10:15:47;101627.39;;;23.65;76.59
63281;BME280;49406;51.044;3.766;2022-08-19T10:18:25;101623.13;;;23.59;77.07
63281;BME280;49406;51.044;3.766;2022-08-19T10:21:06;101624.95;;;23.52;77.65
63281;BME280;49406;51.044;3.766;2022-08-19T10:23:48;101621.17;;;23.47;77.99
63281;BME280;49406;51.044;3.766;2022-08-19T10:26:25;101620.71;;;23.40;76.79
63281;BME280;49406;51.044;3.766;2022-08-19T10:29:01;101620.73;;;23.34;77.65
63281;BME280;49406;51.044;3.766;2022-08-19T10:31:36;101622.66;;;23.40;78.26
63281;BME280;49406;51.044;3.766;2022-08-19T10:34:10;101618.40;;;23.45;77.63
63281;BME280;49406;51.044;3.766;2022-08-19T10:36:44;101619.59;;;23.52;76.71
63281;BME280;49406;51.044;3.766;2022-08-19T10:39:19;101608.66;;;23.65;76.88
63281;BME280;49406;51.044;3.766;2022-08-19T10:41:53;101606.69;;;23.76;75.52
63281;BME280;49406;51.044;3.766;2022-08-19T10:44:29;101606.73;;;23.79;75.07
63281;BME280;49406;51.044;3.766;2022-08-19T10:47:05;101605.39;;;23.82;75.38
63281;BME280;49406;51.044;3.766;2022-08-19T10:49:39;101609.36;;;23.91;75.78
63281;BME280;49406;51.044;3.766;2022-08-19T10:52:28;101607.05;;;23.91;75.16
63281;BME280;49406;51.044;3.766;2022-08-19T10:55:11;101608.15;;;23.80;75.16
63281;BME280;49406;51.044;3.766;2022-08-19T10:58:03;101609.48;;;23.66;75.30
63281;BME280;49406;51.044;3.766;2022-08-19T11:00:38;101608.10;;;23.65;76.48
63281;BME280;49406;51.044;3.766;2022-08-19T11:03:14;101610.13;;;23.68;76.80
63281;BME280;49406;51.044;3.766;2022-08-19T11:05:58;101612.20;;;23.71;77.00
63281;BME280;49406;51.044;3.766;2022-08-19T11:08:33;101610.75;;;23.66;76.61
63281;BME280;49406;51.044;3.766;2022-08-19T11:11:10;101620.46;;;23.58;76.74
63281;BME280;49406;51.044;3.766;2022-08-19T11:13:45;101617.46;;;23.46;76.77
63281;BME280;49406;51.044;3.766;2022-08-19T11:16:22;101618.91;;;23.35;76.99
63281;BME280;49406;51.044;3.766;2022-08-19T11:18:59;101616.06;;;23.35;77.44
63281;BME280;49406;51.044;3.766;2022-08-19T11:21:36;101618.48;;;23.42;77.75
63281;BME280;49406;51.044;3.766;2022-08-19T11:24:13;101615.74;;;23.55;77.67
63281;BME280;49406;51.044;3.766;2022-08-19T11:26:50;101616.05;;;23.62;77.26
63281;BME280;49406;51.044;3.766;2022-08-19T11:29:25;101611.98;;;23.66;76.60
63281;BME280;49406;51.044;3.766;2022-08-19T11:32:02;101618.80;;;23.71;76.04
63281;BME280;49406;51.044;3.766;2022-08-19T11:34:37;101614.20;;;23.76;75.12
63281;BME280;49406;51.044;3.766;2022-08-19T11:37:12;101616.13;;;23.76;75.04
63281;BME280;49406;51.044;3.766;2022-08-19T11:39:46;101613.83;;;23.81;75.24
63281;BME280;49406;51.044;3.766;2022-08-19T11:42:21;101615.55;;;23.87;74.70
63281;BME280;49406;51.044;3.766;2022-08-19T11:45:13;101618.41;;;23.92;74.35
63281;BME280;49406;51.044;3.766;2022-08-19T11:47:47;101617.73;;;23.96;73.70
63281;BME280;49406;51.044;3.766;2022-08-19T11:50:22;101615.70;;;24.04;73.74
63281;BME280;49406;51.044;3.766;2022-08-19T11:52:58;101615.26;;;24.21;73.14
63281;BME280;49406;51.044;3.766;2022-08-19T11:55:33;101617.39;;;24.46;72.80
63281;BME280;49406;51.044;3.766;2022-08-19T11:58:12;101618.84;;;24.70;71.07
63281;BME280;49406;51.044;3.766;2022-08-19T12:00:47;101621.24;;;24.81;69.99
63281;BME280;49406;51.044;3.766;2022-08-19T12:03:21;101618.10;;;24.79;69.28
63281;BME280;49406;51.044;3.766;2022-08-19T12:05:56;101615.70;;;24.76;70.02
63281;BME280;49406;51.044;3.766;2022-08-19T12:08:31;101619.43;;;24.77;69.85
63281;BME280;49406;51.044;3.766;2022-08-19T12:11:06;101618.98;;;24.84;69.30
63281;BME280;49406;51.044;3.766;2022-08-19T12:13:41;101612.07;;;24.92;68.56
63281;BME280;49406;51.044;3.766;2022-08-19T12:16:19;101615.27;;;24.96;68.24
63281;BME280;49406;51.044;3.766;2022-08-19T12:18:54;101615.32;;;25.00;68.55
63281;BME280;49406;51.044;3.766;2022-08-19T12:21:29;101609.54;;;25.11;67.77
63281;BME280;49406;51.044;3.766;2022-08-19T12:24:06;101608.00;;;25.26;67.74
63281;BME280;49406;51.044;3.766;2022-08-19T12:26:40;101610.02;;;25.38;66.50
63281;BME280;49406;51.044;3.766;2022-08-19T12:29:15;101606.38;;;25.40;66.53
63281;BME280;49406;51.044;3.766;2022-08-19T12:31:50;101604.72;;;25.50;66.75
63281;BME280;49406;51.044;3.766;2022-08-19T12:34:24;101594.73;;;25.53;65.16
63281;BME280;49406;51.044;3.766;2022-08-19T12:37:01;101598.31;;;25.53;65.92
63281;BME280;49406;51.044;3.766;2022-08-19T12:39:39;101598.02;;;25.52;66.23
63281;BME280;49406;51.044;3.766;2022-08-19T12:42:15;101598.30;;;25.49;66.59
63281;BME280;49406;51.044;3.766;2022-08-19T12:44:51;101603.56;;;25.34;66.28
63281;BME280;49406;51.044;3.766;2022-08-19T12:47:25;101603.83;;;24.97;68.07
63281;BME280;49406;51.044;3.766;2022-08-19T12:50:00;101606.95;;;24.71;70.16
63281;BME280;49406;51.044;3.766;2022-08-19T12:52:36;101605.46;;;24.40;71.88
63281;BME280;49406;51.044;3.766;2022-08-19T12:55:11;101601.22;;;24.14;73.00
63281;BME280;49406;51.044;3.766;2022-08-19T12:57:46;101605.29;;;24.00;74.21
63281;BME280;49406;51.044;3.766;2022-08-19T13:00:22;101604.07;;;23.99;75.26
63281;BME280;49406;51.044;3.766;2022-08-19T13:02:57;101606.70;;;24.11;75.78
63281;BME280;49406;51.044;3.766;2022-08-19T13:05:32;101601.12;;;24.31;75.81
63281;BME280;49406;51.044;3.766;2022-08-19T13:08:07;101599.48;;;24.66;75.74
63281;BME280;49406;51.044;3.766;2022-08-19T13:10:42;101593.38;;;24.94;74.59
63281;BME280;49406;51.044;3.766;2022-08-19T13:13:17;101595.27;;;25.14;72.84
63281;BME280;49406;51.044;3.766;2022-08-19T13:15:51;101596.38;;;25.31;71.96
63281;BME280;49406;51.044;3.766;2022-08-19T13:18:26;101590.33;;;25.55;71.73
63281;BME280;49406;51.044;3.766;2022-08-19T13:21:05;101587.80;;;25.69;71.05
63281;BME280;49406;51.044;3.766;2022-08-19T13:23:40;101588.63;;;25.58;70.18
63281;BME280;49406;51.044;3.766;2022-08-19T13:26:15;101609.60;;;25.39;70.87
63281;BME280;49406;51.044;3.766;2022-08-19T13:28:50;101622.69;;;24.37;75.30
63281;BME280;49406;51.044;3.766;2022-08-19T13:31:43;101624.46;;;23.34;79.82
63281;BME280;49406;51.044;3.766;2022-08-19T13:34:36;101620.21;;;22.58;83.29